sensor_id;sensor_type;location;lat;lon;timestamp;temperature;humidity
56076;DHT22;41951;49.022;12.066;2023-04-30T00:00:28;11.90;99.90
56076;DHT22;41951;49.022;12.066;2023-04-30T00:02:54;11.90;99.90
56076;DHT22;41951;49.022;12.066;2023-04-30T00:05:19;11.90;99.90
56076;DHT22;41951;49.022;12.066;2023-04-30T00:07:45;11.90;99.90
56076;DHT22;41951;49.022;12.066;2023-04-30T00:10:11;11.80;99.90
56076;DHT22;41951;49.022;12.066;2023-04-30T00:12:37;11.80;99.90
56076;DHT22;41951;49.022;12.066;2023-04-30T00:15:03;11.80;99.90
56076;DHT22;41951;49.022;12.066;2023-04-30T00:17:29;11.80;99.90
56076;DHT22;41951;49.022;12.066;2023-04-30T00:19:54;11.80;99.90
56076;DHT22;41951;49.022;12.066;2023-04-30T00:22:20;11.80;99.90
56076;DHT22;41951;49.022;12.066;2023-04-30T00:24:46;11.80;99.90
56076;DHT22;41951;49.022;12.066;2023-04-30T00:27:11;11.90;99.90
56076;DHT22;41951;49.022;12.066;2023-04-30T00:29:37;11.80;99.90
56076;DHT22;41951;49.022;12.066;2023-04-30T00:32:03;11.80;99.90
56076;DHT22;41951;49.022;12.066;2023-04-30T00:34:28;11.70;99.90
56076;DHT22;41951;49.022;12.066;2023-04-30T00:36:54;11.80;99.90
56076;DHT22;41951;49.022;12.066;2023-04-30T00:39:20;11.80;99.90
56076;DHT22;41951;49.022;12.066;2023-04-30T00:41:45;11.70;99.90
56076;DHT22;41951;49.022;12.066;2023-04-30T00:44:11;11.70;99.90
56076;DHT22;41951;49.022;12.066;2023-04-30T00:46:36;11.70;99.90
56076;DHT22;41951;49.022;12.066;2023-04-30T00:49:02;11.70;99.90
56076;DHT22;41951;49.022;12.066;2023-04-30T00:51:31;11.70;99.90
56076;DHT22;41951;49.022;12.066;2023-04-30T00:53:59;11.70;99.90
56076;DHT22;41951;49.022;12.066;2023-04-30T00:56:25;11.70;99.90
56076;DHT22;41951;49.022;12.066;2023-04-30T00:58:51;11.70;99.90
56076;DHT22;41951;49.022;12.066;2023-04-30T01:01:25;11.60;99.90
56076;DHT22;41951;49.022;12.066;2023-04-30T01:03:51;11.60;99.90
56076;DHT22;41951;49.022;12.066;2023-04-30T01:06:16;11.60;99.90
56076;DHT22;41951;49.022;12.066;2023-04-30T01:08:42;11.60;99.90
56076;DHT22;41951;49.022;12.066;2023-04-30T01:11:27;11.60;99.90
56076;DHT22;41951;49.022;12.066;2023-04-30T01:17:07;11.50;99.90
56076;DHT22;41951;49.022;12.066;2023-04-30T01:19:42;11.50;99.90
56076;DHT22;41951;49.022;12.066;2023-04-30T01:25:04;11.50;99.90
56076;DHT22;41951;49.022;12.066;2023-04-30T01:30:11;11.50;99.90
56076;DHT22;41951;49.022;12.066;2023-04-30T01:32:37;11.50;99.90
56076;DHT22;41951;49.022;12.066;2023-04-30T01:35:03;11.50;99.90
56076;DHT22;41951;49.022;12.066;2023-04-30T01:37:50;11.50;99.90
56076;DHT22;41951;49.022;12.066;2023-04-30T01:40:23;11.50;99.90
56076;DHT22;41951;49.022;12.066;2023-04-30T01:43:19;11.50;99.90
56076;DHT22;41951;49.022;12.066;2023-04-30T01:49:03;11.40;99.90
56076;DHT22;41951;49.022;12.066;2023-04-30T01:51:42;11.50;99.90
56076;DHT22;41951;49.022;12.066;2023-04-30T01:54:22;11.40;99.90
56076;DHT22;41951;49.022;12.066;2023-04-30T01:57:22;11.40;99.90
56076;DHT22;41951;49.022;12.066;2023-04-30T01:59:49;11.30;99.90
56076;DHT22;41951;49.022;12.066;2023-04-30T02:02:16;11.30;99.90
56076;DHT22;41951;49.022;12.066;2023-04-30T02:04:41;11.30;99.90
56076;DHT22;41951;49.022;12.066;2023-04-30T02:07:07;11.40;99.90
56076;DHT22;41951;49.022;12.066;2023-04-30T02:09:32;11.30;99.90
56076;DHT22;41951;49.022;12.066;2023-04-30T02:11:58;11.30;99.90
56076;DHT22;41951;49.022;12.066;2023-04-30T02:14:24;11.30;99.90
56076;DHT22;41951;49.022;12.066;2023-04-30T02:16:49;11.30;99.90
56076;DHT22;41951;49.022;12.066;2023-04-30T02:19:15;11.30;99.90
56076;DHT22;41951;49.022;12.066;2023-04-30T02:21:41;11.30;99.90
56076;DHT22;41951;49.022;12.066;2023-04-30T02:24:06;11.30;99.90
56076;DHT22;41951;49.022;12.066;2023-04-30T02:26:32;11.30;99.90
56076;DHT22;41951;49.022;12.066;2023-04-30T02:28:58;11.30;99.90
56076;DHT22;41951;49.022;12.066;2023-04-30T02:31:23;11.30;99.90
56076;DHT22;41951;49.022;12.066;2023-04-30T02:33:49;11.20;99.90
56076;DHT22;41951;49.022;12.066;2023-04-30T02:36:14;11.20;99.90
56076;DHT22;41951;49.022;12.066;2023-04-30T02:38:40;11.20;99.90
56076;DHT22;41951;49.022;12.066;2023-04-30T02:41:05;11.20;99.90
56076;DHT22;41951;49.022;12.066;2023-04-30T02:43:31;11.20;99.90
56076;DHT22;41951;49.022;12.066;2023-04-30T02:45:56;11.20;99.90
56076;DHT22;41951;49.022;12.066;2023-04-30T02:48:22;11.30;99.90
56076;DHT22;41951;49.022;12.066;2023-04-30T02:50:48;11.20;99.90
56076;DHT22;41951;49.022;12.066;2023-04-30T02:53:13;11.20;99.90
56076;DHT22;41951;49.022;12.066;2023-04-30T02:55:39;11.20;99.90
56076;DHT22;41951;49.022;12.066;2023-04-30T02:58:05;11.20;99.90
56076;DHT22;41951;49.022;12.066;2023-04-30T03:00:30;11.20;99.90
56076;DHT22;41951;49.022;12.066;2023-04-30T03:02:56;11.20;99.90
56076;DHT22;41951;49.022;12.066;2023-04-30T03:07:49;11.20;99.90
56076;DHT22;41951;49.022;12.066;2023-04-30T03:10:14;11.20;99.90
56076;DHT22;41951;49.022;12.066;2023-04-30T03:12:40;11.20;99.90
56076;DHT22;41951;49.022;12.066;2023-04-30T03:15:06;11.20;99.90
56076;DHT22;41951;49.022;12.066;2023-04-30T03:17:32;11.20;99.90
56076;DHT22;41951;49.022;12.066;2023-04-30T03:19:58;11.20;99.90
56076;DHT22;41951;49.022;12.066;2023-04-30T03:22:23;11.20;99.90
56076;DHT22;41951;49.022;12.066;2023-04-30T03:24:50;11.20;99.90
56076;DHT22;41951;49.022;12.066;2023-04-30T03:27:16;11.20;99.90
56076;DHT22;41951;49.022;12.066;2023-04-30T03:29:42;11.20;99.90
56076;DHT22;41951;49.022;12.066;2023-04-30T03:32:07;11.10;99.90
56076;DHT22;41951;49.022;12.066;2023-04-30T03:34:33;11.10;99.90
56076;DHT22;41951;49.022;12.066;2023-04-30T03:36:59;11.20;99.90
56076;DHT22;41951;49.022;12.066;2023-04-30T03:39:26;11.10;99.90
56076;DHT22;41951;49.022;12.066;2023-04-30T03:41:51;11.10;99.90
56076;DHT22;41951;49.022;12.066;2023-04-30T03:44:17;11.10;99.90
56076;DHT22;41951;49.022;12.066;2023-04-30T03:46:43;11.10;99.90
56076;DHT22;41951;49.022;12.066;2023-04-30T03:49:08;11.10;99.90
56076;DHT22;41951;49.022;12.066;2023-04-30T03:51:35;11.10;99.90
56076;DHT22;41951;49.022;12.066;2023-04-30T03:54:05;11.10;99.90
56076;DHT22;41951;49.022;12.066;2023-04-30T03:56:31;11.00;99.90
56076;DHT22;41951;49.022;12.066;2023-04-30T03:58:57;11.00;99.90
56076;DHT22;41951;49.022;12.066;2023-04-30T04:01:23;11.00;99.90
56076;DHT22;41951;49.022;12.066;2023-04-30T04:03:49;11.00;99.90
56076;DHT22;41951;49.022;12.066;2023-04-30T04:06:14;11.10;99.90
56076;DHT22;41951;49.022;12.066;2023-04-30T04:08:40;11.00;99.90
56076;DHT22;41951;49.022;12.066;2023-04-30T04:11:08;11.00;99.90
56076;DHT22;41951;49.022;12.066;2023-04-30T04:13:34;11.00;99.90
56076;DHT22;41951;49.022;12.066;2023-04-30T04:16:00;11.00;99.90
56076;DHT22;41951;49.022;12.066;2023-04-30T04:18:25;11.00;99.90
56076;DHT22;41951;49.022;12.066;2023-04-30T04:20:51;11.00;99.90
56076;DHT22;41951;49.022;12.066;2023-04-30T04:23:16;10.90;99.90
56076;DHT22;41951;49.022;12.066;2023-04-30T04:25:42;11.00;99.90
56076;DHT22;41951;49.022;12.066;2023-04-30T04:28:08;11.00;99.90
56076;DHT22;41951;49.022;12.066;2023-04-30T04:30:34;10.90;99.90
56076;DHT22;41951;49.022;12.066;2023-04-30T04:33:01;10.90;99.90
56076;DHT22;41951;49.022;12.066;2023-04-30T04:35:26;11.00;99.90
56076;DHT22;41951;49.022;12.066;2023-04-30T04:37:52;11.00;99.90
56076;DHT22;41951;49.022;12.066;2023-04-30T04:40:17;11.00;99.90
56076;DHT22;41951;49.022;12.066;2023-04-30T04:42:43;11.00;99.90
56076;DHT22;41951;49.022;12.066;2023-04-30T04:45:09;11.00;99.90
56076;DHT22;41951;49.022;12.066;2023-04-30T04:47:35;11.00;99.90
56076;DHT22;41951;49.022;12.066;2023-04-30T04:50:01;11.00;99.90
56076;DHT22;41951;49.022;12.066;2023-04-30T04:52:27;11.00;99.90
56076;DHT22;41951;49.022;12.066;2023-04-30T04:54:52;11.10;99.90
56076;DHT22;41951;49.022;12.066;2023-04-30T04:57:18;11.00;99.90
56076;DHT22;41951;49.022;12.066;2023-04-30T04:59:43;11.10;99.90
56076;DHT22;41951;49.022;12.066;2023-04-30T05:02:09;11.00;99.90
56076;DHT22;41951;49.022;12.066;2023-04-30T05:04:35;11.00;99.90
56076;DHT22;41951;49.022;12.066;2023-04-30T05:07:00;11.00;99.90
56076;DHT22;41951;49.022;12.066;2023-04-30T05:09:26;10.90;99.90
56076;DHT22;41951;49.022;12.066;2023-04-30T05:11:51;11.00;99.90
56076;DHT22;41951;49.022;12.066;2023-04-30T05:14:17;11.10;99.90
56076;DHT22;41951;49.022;12.066;2023-04-30T05:16:43;11.20;99.90
56076;DHT22;41951;49.022;12.066;2023-04-30T05:19:08;11.20;99.90
56076;DHT22;41951;49.022;12.066;2023-04-30T05:21:34;11.20;99.90
56076;DHT22;41951;49.022;12.066;2023-04-30T05:24:01;11.30;99.90
56076;DHT22;41951;49.022;12.066;2023-04-30T05:26:27;11.40;99.90
56076;DHT22;41951;49.022;12.066;2023-04-30T05:28:53;11.40;99.90
56076;DHT22;41951;49.022;12.066;2023-04-30T05:31:19;11.40;99.90
56076;DHT22;41951;49.022;12.066;2023-04-30T05:33:44;11.40;99.90
56076;DHT22;41951;49.022;12.066;2023-04-30T05:36:10;11.40;99.90
56076;DHT22;41951;49.022;12.066;2023-04-30T05:38:36;11.50;99.90
56076;DHT22;41951;49.022;12.066;2023-04-30T05:41:01;11.50;99.90
56076;DHT22;41951;49.022;12.066;2023-04-30T05:43:27;11.60;99.90
56076;DHT22;41951;49.022;12.066;2023-04-30T05:45:53;11.60;99.90
56076;DHT22;41951;49.022;12.066;2023-04-30T05:48:18;11.80;99.90
56076;DHT22;41951;49.022;12.066;2023-04-30T05:50:44;11.80;99.90
56076;DHT22;41951;49.022;12.066;2023-04-30T05:53:09;11.90;99.90
56076;DHT22;41951;49.022;12.066;2023-04-30T05:55:35;11.90;99.90
56076;DHT22;41951;49.022;12.066;2023-04-30T05:58:00;11.90;99.90
56076;DHT22;41951;49.022;12.066;2023-04-30T06:00:26;11.80;99.90
56076;DHT22;41951;49.022;12.066;2023-04-30T06:02:52;11.80;99.90
56076;DHT22;41951;49.022;12.066;2023-04-30T06:05:18;11.80;99.90
56076;DHT22;41951;49.022;12.066;2023-04-30T06:07:43;11.80;99.90
56076;DHT22;41951;49.022;12.066;2023-04-30T06:10:09;11.70;99.90
56076;DHT22;41951;49.022;12.066;2023-04-30T06:12:36;11.80;99.90
56076;DHT22;41951;49.022;12.066;2023-04-30T06:15:01;11.90;99.90
56076;DHT22;41951;49.022;12.066;2023-04-30T06:17:27;11.90;99.90
56076;DHT22;41951;49.022;12.066;2023-04-30T06:19:53;11.90;99.90
56076;DHT22;41951;49.022;12.066;2023-04-30T06:22:18;12.00;99.90
56076;DHT22;41951;49.022;12.066;2023-04-30T06:24:44;12.10;99.90
56076;DHT22;41951;49.022;12.066;2023-04-30T06:27:10;12.30;99.90
56076;DHT22;41951;49.022;12.066;2023-04-30T06:29:35;12.30;99.90
56076;DHT22;41951;49.022;12.066;2023-04-30T06:32:01;12.40;99.90
56076;DHT22;41951;49.022;12.066;2023-04-30T06:34:26;12.40;99.90
56076;DHT22;41951;49.022;12.066;2023-04-30T06:36:52;12.50;99.90
56076;DHT22;41951;49.022;12.066;2023-04-30T06:39:18;12.50;99.90
56076;DHT22;41951;49.022;12.066;2023-04-30T06:41:43;12.60;99.90
56076;DHT22;41951;49.022;12.066;2023-04-30T06:44:09;12.70;99.90
56076;DHT22;41951;49.022;12.066;2023-04-30T06:46:35;12.60;99.90
56076;DHT22;41951;49.022;12.066;2023-04-30T06:49:00;12.70;99.90
56076;DHT22;41951;49.022;12.066;2023-04-30T06:51:26;12.80;99.90
56076;DHT22;41951;49.022;12.066;2023-04-30T06:53:52;12.90;99.90
56076;DHT22;41951;49.022;12.066;2023-04-30T06:56:18;13.00;99.90
56076;DHT22;41951;49.022;12.066;2023-04-30T06:58:46;13.10;99.90
56076;DHT22;41951;49.022;12.066;2023-04-30T07:01:12;13.10;99.90
56076;DHT22;41951;49.022;12.066;2023-04-30T07:03:37;13.20;99.90
56076;DHT22;41951;49.022;12.066;2023-04-30T07:06:03;13.30;99.90
56076;DHT22;41951;49.022;12.066;2023-04-30T07:08:29;13.40;99.90
56076;DHT22;41951;49.022;12.066;2023-04-30T07:10:55;13.50;99.90
56076;DHT22;41951;49.022;12.066;2023-04-30T07:13:20;13.50;99.90
56076;DHT22;41951;49.022;12.066;2023-04-30T07:15:46;13.60;99.90
56076;DHT22;41951;49.022;12.066;2023-04-30T07:18:11;13.60;99.90
56076;DHT22;41951;49.022;12.066;2023-04-30T07:20:37;13.50;99.90
56076;DHT22;41951;49.022;12.066;2023-04-30T07:23:03;13.30;99.90
56076;DHT22;41951;49.022;12.066;2023-04-30T07:25:28;13.20;99.90
56076;DHT22;41951;49.022;12.066;2023-04-30T07:27:54;13.20;99.90
56076;DHT22;41951;49.022;12.066;2023-04-30T07:30:20;13.10;99.90
56076;DHT22;41951;49.022;12.066;2023-04-30T07:32:46;13.10;99.90
56076;DHT22;41951;49.022;12.066;2023-04-30T07:35:12;13.10;99.90
56076;DHT22;41951;49.022;12.066;2023-04-30T07:37:39;13.10;99.90
56076;DHT22;41951;49.022;12.066;2023-04-30T07:40:06;13.10;99.90
56076;DHT22;41951;49.022;12.066;2023-04-30T07:42:38;13.10;99.90
56076;DHT22;41951;49.022;12.066;2023-04-30T07:45:04;13.10;99.90
56076;DHT22;41951;49.022;12.066;2023-04-30T07:47:30;13.10;99.90
56076;DHT22;41951;49.022;12.066;2023-04-30T07:49:55;13.10;99.90
56076;DHT22;41951;49.022;12.066;2023-04-30T07:52:21;13.20;99.90
56076;DHT22;41951;49.022;12.066;2023-04-30T07:54:47;13.10;99.90
56076;DHT22;41951;49.022;12.066;2023-04-30T07:57:12;13.40;99.90
56076;DHT22;41951;49.022;12.066;2023-04-30T07:59:38;13.60;99.90
56076;DHT22;41951;49.022;12.066;2023-04-30T08:02:03;13.80;99.90
56076;DHT22;41951;49.022;12.066;2023-04-30T08:04:29;13.60;99.90
56076;DHT22;41951;49.022;12.066;2023-04-30T08:06:54;13.70;99.90
56076;DHT22;41951;49.022;12.066;2023-04-30T08:09:20;13.70;99.90
56076;DHT22;41951;49.022;12.066;2023-04-30T08:11:45;13.70;99.90
56076;DHT22;41951;49.022;12.066;2023-04-30T08:14:11;13.80;99.90
56076;DHT22;41951;49.022;12.066;2023-04-30T08:16:37;13.70;99.90
56076;DHT22;41951;49.022;12.066;2023-04-30T08:19:02;13.60;99.90
56076;DHT22;41951;49.022;12.066;2023-04-30T08:21:29;13.50;99.90
56076;DHT22;41951;49.022;12.066;2023-04-30T08:23:55;13.50;99.90
56076;DHT22;41951;49.022;12.066;2023-04-30T08:26:21;13.50;99.90
56076;DHT22;41951;49.022;12.066;2023-04-30T08:28:48;13.50;99.90
56076;DHT22;41951;49.022;12.066;2023-04-30T08:31:13;13.50;99.90
56076;DHT22;41951;49.022;12.066;2023-04-30T08:33:39;13.60;99.90
56076;DHT22;41951;49.022;12.066;2023-04-30T08:36:05;13.70;99.90
56076;DHT22;41951;49.022;12.066;2023-04-30T08:38:31;13.70;99.90
56076;DHT22;41951;49.022;12.066;2023-04-30T08:41:13;13.80;99.90
56076;DHT22;41951;49.022;12.066;2023-04-30T08:43:39;13.80;99.90
56076;DHT22;41951;49.022;12.066;2023-04-30T08:46:06;13.80;99.90
56076;DHT22;41951;49.022;12.066;2023-04-30T08:48:32;13.90;99.90
56076;DHT22;41951;49.022;12.066;2023-04-30T08:51:02;13.90;99.90
56076;DHT22;41951;49.022;12.066;2023-04-30T08:53:29;14.00;99.90
56076;DHT22;41951;49.022;12.066;2023-04-30T08:55:56;14.10;99.90
56076;DHT22;41951;49.022;12.066;2023-04-30T08:58:22;14.10;99.90
56076;DHT22;41951;49.022;12.066;2023-04-30T09:00:47;14.30;99.90
56076;DHT22;41951;49.022;12.066;2023-04-30T09:03:13;14.40;99.90
56076;DHT22;41951;49.022;12.066;2023-04-30T09:05:39;14.60;99.90
56076;DHT22;41951;49.022;12.066;2023-04-30T09:08:06;14.90;99.90
56076;DHT22;41951;49.022;12.066;2023-04-30T09:10:33;15.10;99.90
56076;DHT22;41951;49.022;12.066;2023-04-30T09:13:01;15.20;99.90
56076;DHT22;41951;49.022;12.066;2023-04-30T09:15:27;15.20;99.90
56076;DHT22;41951;49.022;12.066;2023-04-30T09:18:13;15.30;99.90
56076;DHT22;41951;49.022;12.066;2023-04-30T09:20:56;15.10;99.90
56076;DHT22;41951;49.022;12.066;2023-04-30T09:23:23;15.10;99.90
56076;DHT22;41951;49.022;12.066;2023-04-30T09:25:48;15.30;99.90
56076;DHT22;41951;49.022;12.066;2023-04-30T09:28:14;15.40;99.90
56076;DHT22;41951;49.022;12.066;2023-04-30T09:30:40;15.40;99.90
56076;DHT22;41951;49.022;12.066;2023-04-30T09:33:06;15.30;99.90
56076;DHT22;41951;49.022;12.066;2023-04-30T09:35:34;15.20;99.90
56076;DHT22;41951;49.022;12.066;2023-04-30T09:38:03;15.10;99.90
56076;DHT22;41951;49.022;12.066;2023-04-30T09:40:35;15.10;99.90
56076;DHT22;41951;49.022;12.066;2023-04-30T09:43:02;15.00;99.90
56076;DHT22;41951;49.022;12.066;2023-04-30T09:45:42;14.90;99.90
56076;DHT22;41951;49.022;12.066;2023-04-30T09:48:09;15.00;99.90
56076;DHT22;41951;49.022;12.066;2023-04-30T09:50:37;15.00;99.90
56076;DHT22;41951;49.022;12.066;2023-04-30T09:53:07;15.00;99.90
56076;DHT22;41951;49.022;12.066;2023-04-30T09:55:34;15.20;99.90
56076;DHT22;41951;49.022;12.066;2023-04-30T09:58:05;15.30;99.90
56076;DHT22;41951;49.022;12.066;2023-04-30T10:00:35;15.20;99.90
56076;DHT22;41951;49.022;12.066;2023-04-30T10:03:06;15.10;99.90
56076;DHT22;41951;49.022;12.066;2023-04-30T10:05:42;15.10;99.90
56076;DHT22;41951;49.022;12.066;2023-04-30T10:08:27;15.10;99.90
56076;DHT22;41951;49.022;12.066;2023-04-30T10:10:58;15.10;99.90
56076;DHT22;41951;49.022;12.066;2023-04-30T10:13:32;15.10;99.90
56076;DHT22;41951;49.022;12.066;2023-04-30T10:16:11;15.30;99.90
56076;DHT22;41951;49.022;12.066;2023-04-30T10:18:43;15.50;99.90
56076;DHT22;41951;49.022;12.066;2023-04-30T10:21:12;15.80;99.90
56076;DHT22;41951;49.022;12.066;2023-04-30T10:23:39;16.00;99.90
56076;DHT22;41951;49.022;12.066;2023-04-30T10:26:10;16.10;99.90
56076;DHT22;41951;49.022;12.066;2023-04-30T10:28:37;16.00;99.90
56076;DHT22;41951;49.022;12.066;2023-04-30T10:31:05;16.00;99.90
56076;DHT22;41951;49.022;12.066;2023-04-30T10:33:36;16.10;99.90
56076;DHT22;41951;49.022;12.066;2023-04-30T10:36:11;16.10;99.90
56076;DHT22;41951;49.022;12.066;2023-04-30T10:38:37;16.10;99.90
56076;DHT22;41951;49.022;12.066;2023-04-30T10:41:06;16.20;99.90
56076;DHT22;41951;49.022;12.066;2023-04-30T10:43:32;16.30;99.90
56076;DHT22;41951;49.022;12.066;2023-04-30T10:46:01;16.20;99.90
56076;DHT22;41951;49.022;12.066;2023-04-30T10:48:27;16.20;99.90
56076;DHT22;41951;49.022;12.066;2023-04-30T10:50:58;16.10;99.90
56076;DHT22;41951;49.022;12.066;2023-04-30T10:53:24;16.20;99.60
56076;DHT22;41951;49.022;12.066;2023-04-30T10:55:56;16.20;99.70
56076;DHT22;41951;49.022;12.066;2023-04-30T10:58:33;16.20;99.90
56076;DHT22;41951;49.022;12.066;2023-04-30T11:01:09;16.30;99.70
56076;DHT22;41951;49.022;12.066;2023-04-30T11:03:36;16.40;99.30
56076;DHT22;41951;49.022;12.066;2023-04-30T11:08:41;16.70;97.80
56076;DHT22;41951;49.022;12.066;2023-04-30T11:11:08;16.80;98.90
56076;DHT22;41951;49.022;12.066;2023-04-30T11:13:44;16.90;98.70
56076;DHT22;41951;49.022;12.066;2023-04-30T11:16:10;17.00;98.80
56076;DHT22;41951;49.022;12.066;2023-04-30T11:18:46;17.10;98.80
56076;DHT22;41951;49.022;12.066;2023-04-30T11:21:12;17.20;99.50
56076;DHT22;41951;49.022;12.066;2023-04-30T11:23:43;17.50;98.80
56076;DHT22;41951;49.022;12.066;2023-04-30T11:26:13;17.70;98.00
56076;DHT22;41951;49.022;12.066;2023-04-30T11:28:49;17.60;97.40
56076;DHT22;41951;49.022;12.066;2023-04-30T11:31:16;17.60;96.10
56076;DHT22;41951;49.022;12.066;2023-04-30T11:33:42;17.50;96.20
56076;DHT22;41951;49.022;12.066;2023-04-30T11:36:07;17.50;95.70
56076;DHT22;41951;49.022;12.066;2023-04-30T11:38:34;17.60;95.90
56076;DHT22;41951;49.022;12.066;2023-04-30T11:41:01;17.90;94.90
56076;DHT22;41951;49.022;12.066;2023-04-30T11:43:28;17.70;94.10
56076;DHT22;41951;49.022;12.066;2023-04-30T11:46:12;17.70;94.60
56076;DHT22;41951;49.022;12.066;2023-04-30T11:48:40;17.70;93.50
56076;DHT22;41951;49.022;12.066;2023-04-30T11:51:21;17.60;94.20
56076;DHT22;41951;49.022;12.066;2023-04-30T11:53:48;17.70;94.10
56076;DHT22;41951;49.022;12.066;2023-04-30T11:56:22;18.00;94.70
56076;DHT22;41951;49.022;12.066;2023-04-30T11:58:50;18.30;92.80
56076;DHT22;41951;49.022;12.066;2023-04-30T12:01:16;18.30;93.30
56076;DHT22;41951;49.022;12.066;2023-04-30T12:03:47;18.40;92.30
56076;DHT22;41951;49.022;12.066;2023-04-30T12:06:24;18.50;91.90
56076;DHT22;41951;49.022;12.066;2023-04-30T12:08:54;18.60;90.90
56076;DHT22;41951;49.022;12.066;2023-04-30T12:11:28;18.70;91.40
56076;DHT22;41951;49.022;12.066;2023-04-30T12:16:26;19.00;90.50
56076;DHT22;41951;49.022;12.066;2023-04-30T12:18:52;19.20;89.70
56076;DHT22;41951;49.022;12.066;2023-04-30T12:21:19;19.30;89.40
56076;DHT22;41951;49.022;12.066;2023-04-30T12:23:45;19.40;90.00
56076;DHT22;41951;49.022;12.066;2023-04-30T12:26:11;19.30;88.70
56076;DHT22;41951;49.022;12.066;2023-04-30T12:28:37;19.40;89.90
56076;DHT22;41951;49.022;12.066;2023-04-30T12:31:03;19.20;89.30
56076;DHT22;41951;49.022;12.066;2023-04-30T12:33:30;19.20;88.30
56076;DHT22;41951;49.022;12.066;2023-04-30T12:35:56;19.10;88.20
56076;DHT22;41951;49.022;12.066;2023-04-30T12:38:22;19.10;88.20
56076;DHT22;41951;49.022;12.066;2023-04-30T12:40:48;19.00;86.60
56076;DHT22;41951;49.022;12.066;2023-04-30T12:43:15;18.70;87.00
56076;DHT22;41951;49.022;12.066;2023-04-30T12:45:51;18.60;87.60
56076;DHT22;41951;49.022;12.066;2023-04-30T12:48:19;18.40;88.70
56076;DHT22;41951;49.022;12.066;2023-04-30T12:50:59;18.40;88.00
56076;DHT22;41951;49.022;12.066;2023-04-30T12:53:29;18.50;88.60
56076;DHT22;41951;49.022;12.066;2023-04-30T12:56:11;18.50;89.30
56076;DHT22;41951;49.022;12.066;2023-04-30T12:58:38;18.40;89.50
56076;DHT22;41951;49.022;12.066;2023-04-30T13:01:05;18.30;89.30
56076;DHT22;41951;49.022;12.066;2023-04-30T13:03:34;18.10;89.90
56076;DHT22;41951;49.022;12.066;2023-04-30T13:06:00;18.00;89.80
56076;DHT22;41951;49.022;12.066;2023-04-30T13:08:29;17.90;89.40
56076;DHT22;41951;49.022;12.066;2023-04-30T13:10:54;17.90;90.40
56076;DHT22;41951;49.022;12.066;2023-04-30T13:13:20;17.80;90.50
56076;DHT22;41951;49.022;12.066;2023-04-30T13:15:46;17.70;90.00
56076;DHT22;41951;49.022;12.066;2023-04-30T13:18:12;17.70;90.00
56076;DHT22;41951;49.022;12.066;2023-04-30T13:20:40;17.60;90.60
56076;DHT22;41951;49.022;12.066;2023-04-30T13:23:06;17.80;91.10
56076;DHT22;41951;49.022;12.066;2023-04-30T13:25:32;18.20;90.50
56076;DHT22;41951;49.022;12.066;2023-04-30T13:27:58;18.20;88.30
56076;DHT22;41951;49.022;12.066;2023-04-30T13:30:24;18.30;88.70
56076;DHT22;41951;49.022;12.066;2023-04-30T13:32:50;18.20;88.30
56076;DHT22;41951;49.022;12.066;2023-04-30T13:35:17;18.20;90.00
56076;DHT22;41951;49.022;12.066;2023-04-30T13:37:43;18.00;90.20
56076;DHT22;41951;49.022;12.066;2023-04-30T13:40:09;18.00;90.00
56076;DHT22;41951;49.022;12.066;2023-04-30T13:42:39;18.20;90.40
56076;DHT22;41951;49.022;12.066;2023-04-30T13:45:06;18.50;90.20
56076;DHT22;41951;49.022;12.066;2023-04-30T13:47:32;18.80;90.10
56076;DHT22;41951;49.022;12.066;2023-04-30T13:49:58;18.80;88.30
56076;DHT22;41951;49.022;12.066;2023-04-30T13:52:24;19.00;87.80
56076;DHT22;41951;49.022;12.066;2023-04-30T13:54:50;18.90;87.40
56076;DHT22;41951;49.022;12.066;2023-04-30T13:57:16;18.90;88.10
56076;DHT22;41951;49.022;12.066;2023-04-30T13:59:42;19.20;87.80
56076;DHT22;41951;49.022;12.066;2023-04-30T14:02:08;19.40;87.40
56076;DHT22;41951;49.022;12.066;2023-04-30T14:04:33;19.40;85.90
56076;DHT22;41951;49.022;12.066;2023-04-30T14:07:00;19.50;85.60
56076;DHT22;41951;49.022;12.066;2023-04-30T14:09:25;19.80;84.60
56076;DHT22;41951;49.022;12.066;2023-04-30T14:11:51;20.20;82.60
56076;DHT22;41951;49.022;12.066;2023-04-30T14:14:17;20.40;82.70
56076;DHT22;41951;49.022;12.066;2023-04-30T14:16:43;20.10;81.80
56076;DHT22;41951;49.022;12.066;2023-04-30T14:19:09;19.90;81.10
56076;DHT22;41951;49.022;12.066;2023-04-30T14:21:35;19.50;81.00
56076;DHT22;41951;49.022;12.066;2023-04-30T14:24:00;19.20;81.20
56076;DHT22;41951;49.022;12.066;2023-04-30T14:26:26;19.10;81.00
56076;DHT22;41951;49.022;12.066;2023-04-30T14:28:51;18.80;81.90
56076;DHT22;41951;49.022;12.066;2023-04-30T14:31:17;18.80;82.40
56076;DHT22;41951;49.022;12.066;2023-04-30T14:33:43;18.70;82.40
56076;DHT22;41951;49.022;12.066;2023-04-30T14:36:09;18.50;82.70
56076;DHT22;41951;49.022;12.066;2023-04-30T14:38:35;18.30;83.40
56076;DHT22;41951;49.022;12.066;2023-04-30T14:41:01;18.30;83.60
56076;DHT22;41951;49.022;12.066;2023-04-30T14:43:26;18.30;84.10
56076;DHT22;41951;49.022;12.066;2023-04-30T14:45:52;18.70;85.20
56076;DHT22;41951;49.022;12.066;2023-04-30T14:48:17;19.40;85.10
56076;DHT22;41951;49.022;12.066;2023-04-30T14:50:43;20.20;84.30
56076;DHT22;41951;49.022;12.066;2023-04-30T14:53:09;20.80;80.70
56076;DHT22;41951;49.022;12.066;2023-04-30T14:55:40;20.80;79.50
56076;DHT22;41951;49.022;12.066;2023-04-30T14:58:06;21.20;79.70
56076;DHT22;41951;49.022;12.066;2023-04-30T15:00:31;21.60;77.60
56076;DHT22;41951;49.022;12.066;2023-04-30T15:02:57;21.80;76.20
56076;DHT22;41951;49.022;12.066;2023-04-30T15:05:24;21.50;76.30
56076;DHT22;41951;49.022;12.066;2023-04-30T15:07:50;21.00;75.60
56076;DHT22;41951;49.022;12.066;2023-04-30T15:10:16;20.70;76.30
56076;DHT22;41951;49.022;12.066;2023-04-30T15:12:41;20.20;76.80
56076;DHT22;41951;49.022;12.066;2023-04-30T15:15:08;20.30;77.50
56076;DHT22;41951;49.022;12.066;2023-04-30T15:17:34;20.20;76.90
56076;DHT22;41951;49.022;12.066;2023-04-30T15:20:05;20.00;77.50
56076;DHT22;41951;49.022;12.066;2023-04-30T15:22:31;19.70;77.80
56076;DHT22;41951;49.022;12.066;2023-04-30T15:24:58;19.50;78.10
56076;DHT22;41951;49.022;12.066;2023-04-30T15:27:24;19.30;78.60
56076;DHT22;41951;49.022;12.066;2023-04-30T15:29:51;19.10;78.70
56076;DHT22;41951;49.022;12.066;2023-04-30T15:32:18;18.80;78.70
56076;DHT22;41951;49.022;12.066;2023-04-30T15:34:43;18.70;79.60